createdAt,value
2022-09-23T00:01:18.119Z,11.30
2022-09-23T00:03:46.643Z,13.47
2022-09-23T00:06:18.845Z,12.27
2022-09-23T00:08:48.984Z,17.07
2022-09-23T00:11:18.394Z,11.97
2022-09-23T00:13:48.973Z,12.73
2022-09-23T00:16:20.020Z,11.73
2022-09-23T00:18:49.487Z,10.80
2022-09-23T00:21:17.931Z,12.23
2022-09-23T00:23:46.097Z,13.17
2022-09-23T00:26:16.656Z,11.60
2022-09-23T00:28:44.830Z,12.33
2022-09-23T00:31:15.653Z,10.60
2022-09-23T00:33:43.834Z,13.23
2022-09-23T00:38:57.503Z,15.70
2022-09-23T00:41:25.638Z,13.37
2022-09-23T00:43:54.646Z,11.27
2022-09-23T00:46:31.147Z,11.80
2022-09-23T00:49:02.488Z,12.10
2022-09-23T00:51:33.774Z,18.37
2022-09-23T00:54:01.924Z,12.23
2022-09-23T00:56:38.960Z,12.47
2022-09-23T00:59:07.387Z,11.93
2022-09-23T01:01:37.565Z,13.40
2022-09-23T01:04:05.931Z,11.40
2022-09-23T01:06:34.677Z,13.83
2022-09-23T01:09:04.308Z,12.13
2022-09-23T01:11:39.660Z,14.57
2022-09-23T01:14:19.125Z,12.80
2022-09-23T01:16:53.201Z,11.17
2022-09-23T01:19:33.902Z,13.07
2022-09-23T01:22:04.999Z,12.03
2022-09-23T01:24:59.519Z,15.70
2022-09-23T01:27:44.427Z,10.47
2022-09-23T01:30:30.350Z,15.20
2022-09-23T01:33:04.710Z,13.77
2022-09-23T01:36:04.300Z,13.90
2022-09-23T01:38:37.049Z,14.57
2022-09-23T01:41:10.643Z,12.93
2022-09-23T01:43:42.433Z,14.43
2022-09-23T01:46:17.956Z,14.13
2022-09-23T01:48:48.112Z,13.97
2022-09-23T01:51:18.295Z,13.93
2022-09-23T01:53:49.207Z,13.87
2022-09-23T01:56:25.495Z,13.80
2022-09-23T01:58:56.798Z,14.27
2022-09-23T02:01:29.537Z,15.50
2022-09-23T02:04:01.036Z,12.70
2022-09-23T02:06:31.494Z,13.20
2022-09-23T02:09:00.875Z,14.90
2022-09-23T02:11:28.997Z,13.17
2022-09-23T02:13:59.939Z,15.17
2022-09-23T02:16:32.156Z,17.60
2022-09-23T02:19:02.152Z,14.80
2022-09-23T02:21:34.074Z,15.30
2022-09-23T02:24:05.792Z,13.90
2022-09-23T02:26:37.047Z,12.27
2022-09-23T02:29:09.229Z,16.67
2022-09-23T02:31:41.673Z,17.40
2022-09-23T02:34:20.055Z,14.93
2022-09-23T02:36:54.555Z,13.93
2022-09-23T02:39:24.145Z,14.33
2022-09-23T02:41:56.736Z,12.60
2022-09-23T02:44:24.879Z,12.50
2022-09-23T02:46:59.879Z,14.90
2022-09-23T02:49:29.443Z,13.80
2022-09-23T02:51:57.808Z,14.13
2022-09-23T02:54:27.150Z,12.17
2022-09-23T02:56:55.308Z,11.60
2022-09-23T02:59:23.874Z,12.13
2022-09-23T03:02:00.988Z,12.47
2022-09-23T03:04:32.209Z,16.10
2022-09-23T03:07:06.290Z,14.13
2022-09-23T03:09:36.214Z,15.73
2022-09-23T03:12:08.302Z,15.87
2022-09-23T03:14:41.520Z,12.73
2022-09-23T03:17:17.378Z,14.13
2022-09-23T03:19:47.885Z,13.07
2022-09-23T03:22:18.564Z,15.03
2022-09-23T03:24:50.649Z,13.33
2022-09-23T03:27:25.885Z,13.00
2022-09-23T03:29:54.588Z,14.27
2022-09-23T03:32:26.925Z,13.30
2022-09-23T03:34:56.426Z,12.00
2022-09-23T03:37:30.483Z,14.47
2022-09-23T03:40:03.079Z,13.93
2022-09-23T03:42:32.199Z,16.17
2022-09-23T03:45:01.432Z,14.47
2022-09-23T03:47:34.012Z,16.37
2022-09-23T03:50:02.269Z,14.83
2022-09-23T03:52:30.856Z,13.93
2022-09-23T03:54:59.006Z,19.03
2022-09-23T03:57:27.238Z,12.47
2022-09-23T03:59:55.789Z,14.17
2022-09-23T04:02:24.119Z,16.00
2022-09-23T04:04:54.810Z,15.60
2022-09-23T04:07:23.089Z,12.93
2022-09-23T04:09:51.565Z,12.63
2022-09-23T04:12:19.977Z,14.37
2022-09-23T04:14:48.333Z,11.90
2022-09-23T04:17:16.626Z,13.97
2022-09-23T04:19:48.032Z,14.83
2022-09-23T04:22:18.159Z,15.00
2022-09-23T04:24:46.883Z,13.53
2022-09-23T04:27:15.579Z,13.37
2022-09-23T04:29:44.382Z,12.77
2022-09-23T04:32:12.514Z,12.83
2022-09-23T04:34:40.708Z,11.83
2022-09-23T04:37:09.901Z,14.60
2022-09-23T04:39:40.271Z,12.93
2022-09-23T04:42:08.523Z,12.73
2022-09-23T04:44:38.048Z,12.27
2022-09-23T04:47:06.753Z,13.07
2022-09-23T04:49:35.027Z,13.40
2022-09-23T04:52:05.563Z,14.43
2022-09-23T04:54:34.050Z,13.13
2022-09-23T04:57:03.615Z,12.50
2022-09-23T04:59:34.004Z,10.40
2022-09-23T05:02:02.217Z,10.87
2022-09-23T05:04:32.486Z,12.13
2022-09-23T05:07:08.058Z,12.43
2022-09-23T05:09:36.464Z,12.17
2022-09-23T05:12:06.656Z,13.43
2022-09-23T05:14:34.801Z,13.97
2022-09-23T05:17:03.085Z,11.77
2022-09-23T05:19:31.577Z,13.33
2022-09-23T05:22:11.302Z,11.97
2022-09-23T05:24:40.129Z,12.30
2022-09-23T05:27:13.374Z,11.87
2022-09-23T05:29:41.547Z,15.20
2022-09-23T05:32:10.276Z,11.50
2022-09-23T05:34:38.902Z,10.47
2022-09-23T05:37:07.314Z,13.30
2022-09-23T05:39:38.886Z,12.23
2022-09-23T05:42:07.590Z,12.00
2022-09-23T05:44:37.341Z,11.40
2022-09-23T05:47:06.285Z,11.70
2022-09-23T05:49:59.025Z,10.23
2022-09-23T05:52:28.231Z,14.07
2022-09-23T05:54:56.540Z,11.57
2022-09-23T05:57:24.934Z,9.87
2022-09-23T05:59:55.357Z,13.03
2022-09-23T06:02:25.614Z,12.57
2022-09-23T06:04:54.039Z,9.53
2022-09-23T06:07:27.954Z,10.40
2022-09-23T06:09:59.437Z,12.83
2022-09-23T06:12:27.703Z,12.60
2022-09-23T06:15:00.746Z,11.40
2022-09-23T06:17:29.193Z,11.97
2022-09-23T06:20:01.857Z,12.57
2022-09-23T06:22:30.102Z,11.70
2022-09-23T06:25:00.370Z,10.20
2022-09-23T06:27:28.743Z,14.17
2022-09-23T06:30:01.396Z,11.70
2022-09-23T06:32:31.855Z,11.07
2022-09-23T06:35:00.585Z,11.53
2022-09-23T06:37:31.940Z,12.67
2022-09-23T06:40:14.083Z,10.37
2022-09-23T06:42:52.099Z,9.30
2022-09-23T06:45:23.583Z,12.10
2022-09-23T06:47:56.427Z,12.00
2022-09-23T06:50:25.441Z,12.50
2022-09-23T06:52:58.159Z,14.20
2022-09-23T06:55:28.713Z,16.43
2022-09-23T06:57:58.038Z,10.40
2022-09-23T07:01:31.230Z,12.03
2022-09-23T07:04:51.543Z,13.80
2022-09-23T07:07:30.804Z,10.03
2022-09-23T07:10:13.288Z,13.80
2022-09-23T07:17:10.502Z,11.57
2022-09-23T07:19:53.891Z,12.87
2022-09-23T07:22:28.784Z,10.97
2022-09-23T07:25:45.807Z,11.53
2022-09-23T07:28:22.514Z,10.83
2022-09-23T07:31:12.019Z,10.87
2022-09-23T07:34:16.917Z,9.10
2022-09-23T07:36:49.776Z,11.43
2022-09-23T07:40:15.909Z,14.33
2022-09-23T07:46:34.415Z,10.43
2022-09-23T07:49:32.629Z,11.30
2022-09-23T07:52:02.612Z,9.47
2022-09-23T07:54:31.371Z,11.50
2022-09-23T07:56:59.777Z,10.03
2022-09-23T07:59:28.655Z,9.63
2022-09-23T08:01:57.304Z,13.63
2022-09-23T08:04:27.765Z,12.87
2022-09-23T08:06:59.594Z,9.30
2022-09-23T08:09:44.407Z,8.80
2022-09-23T08:12:17.991Z,11.23
2022-09-23T08:14:50.328Z,10.70
2022-09-23T08:17:44.527Z,9.10
2022-09-23T08:20:34.213Z,8.80
2022-09-23T08:23:09.191Z,11.90
2022-09-23T08:25:46.694Z,9.77
2022-09-23T08:28:19.221Z,9.47
2022-09-23T08:30:52.989Z,9.33
2022-09-23T08:33:23.528Z,10.87
2022-09-23T08:35:52.259Z,8.63
2022-09-23T08:38:29.589Z,11.57
2022-09-23T08:41:09.333Z,10.63
2022-09-23T08:43:38.116Z,10.73
2022-09-23T08:46:07.389Z,9.47
2022-09-23T08:48:40.084Z,10.70
2022-09-23T08:51:23.306Z,15.13
2022-09-23T08:53:53.117Z,12.37
2022-09-23T08:56:26.603Z,9.37
2022-09-23T08:59:13.737Z,11.90
2022-09-23T09:01:47.183Z,9.13
2022-09-23T09:04:20.000Z,14.07
2022-09-23T09:06:54.012Z,12.53
2022-09-23T09:09:31.985Z,12.83
2022-09-23T09:12:04.405Z,12.87
2022-09-23T09:14:37.367Z,15.77
2022-09-23T09:17:13.374Z,10.33
2022-09-23T09:19:57.780Z,13.13
2022-09-23T09:22:41.816Z,9.03
2022-09-23T09:25:16.978Z,11.07
2022-09-23T09:27:53.409Z,11.83
2022-09-23T09:30:25.077Z,11.67
2022-09-23T09:33:11.812Z,11.67
2022-09-23T09:35:50.383Z,9.13
2022-09-23T09:38:22.206Z,9.03
2022-09-23T09:40:59.964Z,10.63
2022-09-23T09:43:32.414Z,8.97
2022-09-23T09:46:12.692Z,14.80
2022-09-23T09:48:53.887Z,13.33
2022-09-23T09:51:42.985Z,9.00
2022-09-23T09:54:20.815Z,11.33
2022-09-23T09:57:00.719Z,13.53
2022-09-23T10:03:08.619Z,10.30
2022-09-23T10:05:49.125Z,12.43
2022-09-23T10:08:24.826Z,14.50
2022-09-23T10:10:57.700Z,9.73
2022-09-23T10:13:26.533Z,10.17
2022-09-23T10:16:05.660Z,13.33
2022-09-23T10:18:44.155Z,8.47
2022-09-23T10:21:16.473Z,11.53
2022-09-23T10:23:58.272Z,10.07
2022-09-23T10:26:30.984Z,11.17
2022-09-23T10:29:04.371Z,12.10
2022-09-23T10:31:35.329Z,11.77
2022-09-23T10:34:04.274Z,11.93
2022-09-23T10:36:34.504Z,8.50
2022-09-23T10:39:29.658Z,8.43
2022-09-23T10:42:26.208Z,8.73
2022-09-23T10:45:23.226Z,8.93
2022-09-23T10:48:02.836Z,15.73
2022-09-23T10:50:46.899Z,12.77
2022-09-23T10:53:31.297Z,13.00
2022-09-23T10:56:22.457Z,12.63
2022-09-23T10:59:01.559Z,12.13
2022-09-23T11:01:40.000Z,14.47
2022-09-23T11:04:36.385Z,11.30
2022-09-23T11:07:16.497Z,10.00
2022-09-23T11:10:35.272Z,11.73
2022-09-23T11:13:13.748Z,10.87
2022-09-23T11:15:47.923Z,10.93
2022-09-23T11:18:43.601Z,12.10
2022-09-23T11:21:49.749Z,9.50
2022-09-23T11:24:38.954Z,10.07
2022-09-23T11:27:15.062Z,11.97
2022-09-23T11:30:05.754Z,10.67
2022-09-23T11:32:47.154Z,10.00
2022-09-23T11:35:19.684Z,10.33
2022-09-23T11:37:54.557Z,10.40
2022-09-23T11:40:25.335Z,11.43
2022-09-23T11:42:56.481Z,12.03
2022-09-23T11:45:26.273Z,10.27
2022-09-23T11:48:01.687Z,13.57
2022-09-23T11:50:31.036Z,8.07
2022-09-23T11:53:08.953Z,9.73
2022-09-23T11:55:50.046Z,11.80
2022-09-23T11:58:28.026Z,11.33
2022-09-23T12:01:02.393Z,9.17
2022-09-23T12:03:44.151Z,8.70
2022-09-23T12:06:15.888Z,10.33
2022-09-23T12:08:48.346Z,10.60
2022-09-23T12:11:26.222Z,10.83
2022-09-23T12:13:57.847Z,12.07
2022-09-23T12:16:52.595Z,10.97
2022-09-23T12:19:46.138Z,10.17
2022-09-23T12:22:27.004Z,12.50
2022-09-23T12:25:00.771Z,15.20
2022-09-23T12:27:34.825Z,7.77
2022-09-23T12:30:06.244Z,10.20
2022-09-23T12:32:36.162Z,12.60
2022-09-23T12:35:10.909Z,12.53
2022-09-23T12:37:39.569Z,11.10
2022-09-23T12:40:22.549Z,13.17
2022-09-23T12:42:50.813Z,10.87
2022-09-23T12:45:34.929Z,9.70
2022-09-23T12:48:04.429Z,10.43
2022-09-23T12:51:19.707Z,9.70
2022-09-23T14:03:56.472Z,10.40
2022-09-23T14:06:27.274Z,9.30
2022-09-23T14:09:05.436Z,12.67
2022-09-23T14:11:55.107Z,8.47
2022-09-23T14:14:28.288Z,10.13
2022-09-23T14:16:57.579Z,9.73
2022-09-23T14:19:27.191Z,11.17
2022-09-23T14:22:01.418Z,8.90
2022-09-23T14:24:56.663Z,7.33
2022-09-23T14:27:31.187Z,10.03
2022-09-23T14:30:01.335Z,9.07
2022-09-23T14:32:32.642Z,8.40
2022-09-23T14:35:38.311Z,10.13
2022-09-23T14:38:24.301Z,12.20
2022-09-23T14:40:53.396Z,9.33
2022-09-23T14:43:37.616Z,11.60
2022-09-23T14:46:22.640Z,9.47
2022-09-23T14:48:59.733Z,10.33
2022-09-23T14:51:34.752Z,13.03
2022-09-23T14:54:46.801Z,11.77
2022-09-23T14:57:33.321Z,9.97
2022-09-23T15:00:04.603Z,11.27
2022-09-23T15:02:34.831Z,11.60
2022-09-23T15:05:21.113Z,11.70
2022-09-23T15:07:59.244Z,12.97
2022-09-23T15:10:29.165Z,12.57
2022-09-23T15:13:05.512Z,14.20
2022-09-23T15:15:34.028Z,15.77
2022-09-23T15:18:07.359Z,12.57
2022-09-23T15:20:35.653Z,12.87
2022-09-23T15:23:17.833Z,13.73
2022-09-23T15:25:46.450Z,13.97
2022-09-23T15:28:20.838Z,13.63
2022-09-23T15:30:50.239Z,12.93
2022-09-23T15:33:22.539Z,15.30
2022-09-23T15:35:53.736Z,12.83
2022-09-23T15:38:23.300Z,12.07
2022-09-23T15:40:51.877Z,11.83
2022-09-23T15:43:29.111Z,14.03
2022-09-23T15:46:09.531Z,17.27
2022-09-23T15:48:40.833Z,13.70
2022-09-23T15:51:09.890Z,16.13
2022-09-23T15:53:40.676Z,12.63
2022-09-23T15:56:09.107Z,16.13
2022-09-23T15:58:37.899Z,13.90
2022-09-23T16:01:08.805Z,13.90
2022-09-23T16:04:44.357Z,15.47
2022-09-23T16:07:11.856Z,18.73
2022-09-23T16:09:45.155Z,16.37
2022-09-23T16:12:13.955Z,17.57
2022-09-23T16:14:42.489Z,19.27
2022-09-23T16:17:12.840Z,16.13
2022-09-23T16:19:46.297Z,19.90
2022-09-23T16:22:16.713Z,17.17
2022-09-23T16:25:02.828Z,17.47
2022-09-23T16:27:38.419Z,17.80
2022-09-23T16:30:14.262Z,24.37
2022-09-23T16:33:04.210Z,31.20
2022-09-23T16:35:34.027Z,21.53
2022-09-23T16:38:06.037Z,19.87
2022-09-23T16:40:47.002Z,21.97
2022-09-23T16:43:17.575Z,15.30
2022-09-23T16:45:56.117Z,18.00
2022-09-23T16:48:25.061Z,17.73
2022-09-23T16:51:00.350Z,16.27
2022-09-23T16:53:30.494Z,14.97
2022-09-23T16:56:15.894Z,17.27
2022-09-23T16:58:50.419Z,15.30
2022-09-23T17:01:51.079Z,13.33
2022-09-23T17:04:22.794Z,12.33
2022-09-23T17:07:31.624Z,11.87
2022-09-23T17:10:04.715Z,12.20
2022-09-23T17:12:46.581Z,9.50
2022-09-23T17:19:00.068Z,6.93
2022-09-23T17:21:31.903Z,7.93
2022-09-23T17:24:20.018Z,9.13
2022-09-23T17:30:36.768Z,8.50
2022-09-23T17:41:16.819Z,9.93
2022-09-23T17:55:51.067Z,17.27
2022-09-23T19:21:24.816Z,32.03
2022-09-23T19:27:52.650Z,11.13
2022-09-23T21:17:23.995Z,15.00
2022-09-23T21:26:47.543Z,24.93
2022-09-23T21:29:55.804Z,23.47
2022-09-23T21:33:07.071Z,21.70
2022-09-23T21:35:52.645Z,26.70
2022-09-23T21:38:35.173Z,26.67
2022-09-23T21:41:29.773Z,29.30
2022-09-23T21:44:46.231Z,29.07
2022-09-23T21:47:38.571Z,30.43
2022-09-23T21:53:59.240Z,33.67
2022-09-23T21:57:02.120Z,30.60
2022-09-23T21:59:53.091Z,30.33
2022-09-23T22:02:47.047Z,30.80
2022-09-23T22:09:09.744Z,25.87
2022-09-23T22:11:58.444Z,26.10
2022-09-23T22:14:36.710Z,27.30
2022-09-23T22:17:17.633Z,29.10
2022-09-23T22:19:54.602Z,26.73
2022-09-23T22:22:30.926Z,27.93
2022-09-23T22:25:15.123Z,27.63
2022-09-23T22:28:16.431Z,28.10
2022-09-23T22:31:25.686Z,27.57
2022-09-23T22:34:47.921Z,26.87
2022-09-23T22:37:30.777Z,29.30
2022-09-23T22:40:02.152Z,28.60
2022-09-23T22:42:43.683Z,31.20
2022-09-23T22:45:21.890Z,32.03
2022-09-23T22:47:58.931Z,29.50
2022-09-23T22:50:28.579Z,35.57
2022-09-23T22:53:05.156Z,33.87
2022-09-23T22:55:42.564Z,29.47
2022-09-23T22:58:33.569Z,36.57
2022-09-23T23:01:06.299Z,34.87
2022-09-23T23:03:35.374Z,34.43
2022-09-23T23:06:20.926Z,41.13
2022-09-23T23:08:58.657Z,37.37
2022-09-23T23:11:30.394Z,33.50
2022-09-23T23:14:05.089Z,38.80
2022-09-23T23:16:42.659Z,33.17
2022-09-23T23:19:23.809Z,41.50
2022-09-23T23:21:56.903Z,37.47
2022-09-23T23:24:44.451Z,37.00
2022-09-23T23:27:34.714Z,38.47
2022-09-23T23:30:10.000Z,33.63
2022-09-23T23:32:46.662Z,33.30
2022-09-23T23:35:36.425Z,35.33
2022-09-23T23:38:08.000Z,33.17
2022-09-23T23:40:48.331Z,34.40
2022-09-23T23:43:34.930Z,33.20
2022-09-23T23:46:12.390Z,34.67
2022-09-23T23:48:49.692Z,33.30
2022-09-23T23:51:32.873Z,32.20
2022-09-23T23:54:18.565Z,33.40
2022-09-23T23:56:48.458Z,29.60
2022-09-23T23:59:20.965Z,32.23
